Time;durP1;ratioP1;P1;durP2;ratioP2;P2;SDS_P1;SDS_P2;PMS_P1;PMS_P2;Temp;Humidity;BMP_temperature;BMP_pressure;BME280_temperature;BME280_humidity;BME280_pressure;Samples;Min_cycle;Max_cycle;Signal;HPM_P1;HPM_P2
2022/12/31 00:00:28;;;;;;;26.52;15.57;;;;;;;;;;5093651;28;20024;-75
2022/12/31 00:03:14;;;;;;;23.42;14.93;;;;;;;;;;5093544;28;20024;-74
2022/12/31 00:05:59;;;;;;;21.30;12.77;;;;;;;;;;5093673;28;20032;-75
2022/12/31 00:08:45;;;;;;;21.85;12.25;;;;;;;;;;5093979;28;20026;-75
2022/12/31 00:11:30;;;;;;;19.15;11.70;;;;;;;;;;5093965;28;20095;-75
2022/12/31 00:14:16;;;;;;;16.27;10.80;;;;;;;;;;5093666;28;20022;-75
2022/12/31 00:17:02;;;;;;;18.92;11.10;;;;;;;;;;5093582;28;20030;-75
2022/12/31 00:19:47;;;;;;;15.43;10.07;;;;;;;;;;5093476;28;20016;-76
2022/12/31 00:22:33;;;;;;;16.85;10.27;;;;;;;;;;5093462;28;20027;-75
2022/12/31 00:25:18;;;;;;;15.48;9.75;;;;;;;;;;5078439;28;20066;-74
2022/12/31 00:28:04;;;;;;;17.42;10.10;;;;;;;;;;5077765;28;20016;-75
2022/12/31 00:30:50;;;;;;;18.33;9.88;;;;;;;;;;5093805;28;20024;-74
2022/12/31 00:33:35;;;;;;;19.15;10.65;;;;;;;;;;5093734;28;20091;-74
2022/12/31 00:36:22;;;;;;;20.13;10.13;;;;;;;;;;5079114;28;20121;-75
2022/12/31 00:39:09;;;;;;;16.80;10.32;;;;;;;;;;5093110;28;20016;-75
2022/12/31 00:41:55;;;;;;;14.63;9.20;;;;;;;;;;5093316;28;20111;-75
2022/12/31 00:44:40;;;;;;;15.27;9.50;;;;;;;;;;5093700;28;20038;-74
2022/12/31 00:47:26;;;;;;;15.48;9.80;;;;;;;;;;5093222;28;20020;-73
2022/12/31 00:50:11;;;;;;;15.25;9.52;;;;;;;;;;5093583;28;20031;-74
2022/12/31 00:52:57;;;;;;;14.93;10.05;;;;;;;;;;5092655;28;20050;-75
2022/12/31 00:55:43;;;;;;;14.02;9.38;;;;;;;;;;5093195;28;20012;-74
2022/12/31 00:58:28;;;;;;;14.63;9.45;;;;;;;;;;5079310;28;20033;-75
2022/12/31 01:01:18;;;;;;;16.75;9.65;;;;;;;;;;5075490;28;20135;-75
2022/12/31 01:04:06;;;;;;;14.55;10.00;;;;;;;;;;5089999;28;20047;-75
2022/12/31 01:06:51;;;;;;;15.85;9.95;;;;;;;;;;5082666;28;20116;-75
2022/12/31 01:09:37;;;;;;;16.88;10.30;;;;;;;;;;5097162;28;20027;-75
2022/12/31 01:12:23;;;;;;;17.52;11.40;;;;;;;;;;5096168;28;20456;-74
2022/12/31 01:15:09;;;;;;;18.15;11.50;;;;;;;;;;5096497;28;20024;-74
2022/12/31 01:17:54;;;;;;;16.70;11.02;;;;;;;;;;5096342;28;20020;-74
2022/12/31 01:20:41;;;;;;;23.15;12.60;;;;;;;;;;5097020;28;20038;-75
2022/12/31 01:23:26;;;;;;;22.23;12.82;;;;;;;;;;5098254;28;20028;-75
2022/12/31 01:26:13;;;;;;;21.00;12.80;;;;;;;;;;5095882;28;20020;-74
2022/12/31 01:28:59;;;;;;;21.63;12.75;;;;;;;;;;5096592;28;20020;-74
2022/12/31 01:31:44;;;;;;;22.45;13.27;;;;;;;;;;5096658;28;20024;-76
2022/12/31 01:34:30;;;;;;;23.05;14.18;;;;;;;;;;5095959;28;20016;-74
2022/12/31 01:37:15;;;;;;;21.80;13.63;;;;;;;;;;5095916;28;20028;-74
2022/12/31 01:40:01;;;;;;;23.63;13.68;;;;;;;;;;5082150;28;20498;-75
2022/12/31 01:42:54;;;;;;;24.52;13.68;;;;;;;;;;5095805;28;20032;-75
2022/12/31 01:45:40;;;;;;;23.20;14.15;;;;;;;;;;5096121;28;20059;-74
2022/12/31 01:48:27;;;;;;;22.35;14.25;;;;;;;;;;5095314;28;20085;-75
2022/12/31 01:51:13;;;;;;;23.33;14.50;;;;;;;;;;5096429;28;20027;-75
2022/12/31 01:53:59;;;;;;;23.17;14.65;;;;;;;;;;5097124;28;20016;-75
2022/12/31 01:56:46;;;;;;;23.50;15.15;;;;;;;;;;5095054;28;20118;-74
2022/12/31 01:59:32;;;;;;;23.90;14.95;;;;;;;;;;5081348;28;20362;-75
2022/12/31 02:02:17;;;;;;;22.58;14.77;;;;;;;;;;5095350;28;20176;-75
2022/12/31 02:05:08;;;;;;;26.25;15.63;;;;;;;;;;5095984;28;20035;-74
2022/12/31 02:07:55;;;;;;;28.98;18.02;;;;;;;;;;5083131;28;20338;-75
2022/12/31 02:10:40;;;;;;;35.40;18.45;;;;;;;;;;5082245;28;20032;-74
2022/12/31 02:13:26;;;;;;;28.80;16.83;;;;;;;;;;5096807;28;20456;-73
2022/12/31 02:16:15;;;;;;;32.08;19.23;;;;;;;;;;5095750;28;20361;-74
2022/12/31 02:19:10;;;;;;;38.13;21.83;;;;;;;;;;5096507;28;20099;-74
2022/12/31 02:21:59;;;;;;;34.25;19.02;;;;;;;;;;5082178;28;20120;-74
2022/12/31 02:25:03;;;;;;;40.08;22.00;;;;;;;;;;5095336;28;20525;-74
2022/12/31 02:28:07;;;;;;;38.50;21.17;;;;;;;;;;5095199;28;20032;-74
2022/12/31 02:30:57;;;;;;;33.03;19.83;;;;;;;;;;5080089;28;20059;-74
2022/12/31 02:33:46;;;;;;;32.55;17.80;;;;;;;;;;5096233;28;20054;-74
2022/12/31 02:36:35;;;;;;;28.48;16.90;;;;;;;;;;5095610;28;20077;-74
2022/12/31 02:39:21;;;;;;;28.60;15.55;;;;;;;;;;5082495;28;20023;-75
2022/12/31 02:42:08;;;;;;;25.30;15.40;;;;;;;;;;5081984;28;20024;-74
2022/12/31 02:44:54;;;;;;;25.17;13.63;;;;;;;;;;5081358;28;20331;-74
2022/12/31 02:47:50;;;;;;;27.63;15.65;;;;;;;;;;5095533;28;20458;-74
2022/12/31 02:50:54;;;;;;;23.75;14.50;;;;;;;;;;5082353;28;20039;-73
2022/12/31 02:53:39;;;;;;;20.23;12.57;;;;;;;;;;5095485;28;20020;-74
2022/12/31 02:56:34;;;;;;;20.73;12.95;;;;;;;;;;5095313;28;20408;-74
2022/12/31 03:02:28;;;;;;;20.75;12.70;;;;;;;;;;5094633;28;20137;-74
2022/12/31 03:05:15;;;;;;;20.05;11.88;;;;;;;;;;5080308;28;20047;-74
2022/12/31 03:08:01;;;;;;;20.33;12.07;;;;;;;;;;5095569;28;20027;-75
2022/12/31 03:10:47;;;;;;;21.10;11.88;;;;;;;;;;5080465;28;20430;-74
2022/12/31 03:13:32;;;;;;;22.50;12.80;;;;;;;;;;5094670;28;20024;-74
2022/12/31 03:16:18;;;;;;;20.20;12.05;;;;;;;;;;5094676;28;20077;-73
2022/12/31 03:22:29;;;;;;;23.00;13.27;;;;;;;;;;5094208;28;20339;-74
2022/12/31 03:25:34;;;;;;;18.25;11.57;;;;;;;;;;5094945;28;20068;-74
2022/12/31 03:28:21;;;;;;;18.73;12.07;;;;;;;;;;5094996;28;20020;-74
2022/12/31 03:31:07;;;;;;;22.38;12.73;;;;;;;;;;5081557;28;20032;-74
2022/12/31 03:33:53;;;;;;;18.52;11.55;;;;;;;;;;5094655;28;20023;-74
2022/12/31 03:36:38;;;;;;;19.50;11.90;;;;;;;;;;5066839;28;20024;-74
2022/12/31 03:39:24;;;;;;;21.02;12.50;;;;;;;;;;5094626;28;20337;-75
2022/12/31 03:42:10;;;;;;;18.67;11.15;;;;;;;;;;5093738;28;20042;-74
2022/12/31 03:44:55;;;;;;;20.80;11.90;;;;;;;;;;5094122;28;20366;-75
2022/12/31 03:47:41;;;;;;;21.27;11.82;;;;;;;;;;5094244;28;20036;-75
2022/12/31 03:50:27;;;;;;;18.08;11.30;;;;;;;;;;5093977;28;20073;-74
2022/12/31 03:53:12;;;;;;;20.98;11.27;;;;;;;;;;5094312;28;20102;-75
2022/12/31 03:55:58;;;;;;;21.45;11.82;;;;;;;;;;5094924;28;20453;-75
2022/12/31 03:58:44;;;;;;;18.92;11.90;;;;;;;;;;5093939;28;20405;-74
2022/12/31 04:01:29;;;;;;;18.27;11.38;;;;;;;;;;5093801;28;20067;-75
2022/12/31 04:04:15;;;;;;;20.90;12.50;;;;;;;;;;5093663;28;20031;-74
2022/12/31 04:07:00;;;;;;;19.35;11.98;;;;;;;;;;5093841;28;20354;-74
2022/12/31 04:09:46;;;;;;;17.83;11.02;;;;;;;;;;5079089;28;20024;-74
2022/12/31 04:12:32;;;;;;;16.98;10.85;;;;;;;;;;5093372;28;20024;-74
2022/12/31 04:15:19;;;;;;;18.23;11.18;;;;;;;;;;5094275;28;20016;-74
2022/12/31 04:18:04;;;;;;;17.08;10.57;;;;;;;;;;5093500;28;20385;-74
2022/12/31 04:20:50;;;;;;;17.65;10.60;;;;;;;;;;5102768;28;20091;-74
2022/12/31 04:23:35;;;;;;;19.48;10.90;;;;;;;;;;5111877;28;20024;-74
2022/12/31 04:26:21;;;;;;;16.38;10.68;;;;;;;;;;5104706;28;20058;-75
2022/12/31 04:29:07;;;;;;;16.55;10.70;;;;;;;;;;5093888;28;20024;-75
2022/12/31 04:31:52;;;;;;;16.17;10.45;;;;;;;;;;5093605;28;20028;-75
2022/12/31 04:34:38;;;;;;;15.88;10.25;;;;;;;;;;5079419;28;20485;-75
2022/12/31 04:37:23;;;;;;;16.00;10.32;;;;;;;;;;5092964;28;20016;-75
2022/12/31 04:40:09;;;;;;;16.17;10.50;;;;;;;;;;5093751;28;20047;-74
2022/12/31 04:42:55;;;;;;;15.98;11.25;;;;;;;;;;5093004;28;20020;-75
2022/12/31 04:45:40;;;;;;;15.23;9.90;;;;;;;;;;5093232;28;20048;-75
2022/12/31 04:48:26;;;;;;;21.38;12.05;;;;;;;;;;5078858;28;20507;-74
2022/12/31 04:51:12;;;;;;;16.83;10.60;;;;;;;;;;5105435;28;20052;-74
2022/12/31 04:53:58;;;;;;;17.27;10.95;;;;;;;;;;5080681;28;20026;-75
2022/12/31 04:56:43;;;;;;;18.58;10.88;;;;;;;;;;5094667;28;20022;-74
2022/12/31 04:59:29;;;;;;;18.55;11.15;;;;;;;;;;5109869;28;20020;-74
2022/12/31 05:02:15;;;;;;;17.13;10.93;;;;;;;;;;5105698;28;20055;-74
2022/12/31 05:05:00;;;;;;;16.48;10.63;;;;;;;;;;5100001;28;20027;-73
2022/12/31 05:07:46;;;;;;;16.42;10.68;;;;;;;;;;5103357;28;20142;-76
2022/12/31 05:10:31;;;;;;;16.85;10.82;;;;;;;;;;5093727;28;20020;-75
2022/12/31 05:13:17;;;;;;;16.15;10.63;;;;;;;;;;5093859;28;20028;-75
2022/12/31 05:16:03;;;;;;;16.90;10.50;;;;;;;;;;5092695;28;20016;-75
2022/12/31 05:18:48;;;;;;;16.85;10.50;;;;;;;;;;5092984;28;20016;-74
2022/12/31 05:21:34;;;;;;;17.73;10.90;;;;;;;;;;5093445;28;20051;-74
2022/12/31 05:24:20;;;;;;;17.70;11.27;;;;;;;;;;5093687;28;20063;-74
2022/12/31 05:27:05;;;;;;;17.70;10.55;;;;;;;;;;5092978;28;20016;-74
2022/12/31 05:29:51;;;;;;;20.10;11.43;;;;;;;;;;5093001;28;20077;-74
2022/12/31 05:32:36;;;;;;;18.38;10.88;;;;;;;;;;5078153;28;20056;-74
2022/12/31 05:35:22;;;;;;;17.70;11.10;;;;;;;;;;5078536;28;20095;-74
2022/12/31 05:38:08;;;;;;;17.48;10.60;;;;;;;;;;5093056;28;20073;-74
2022/12/31 05:41:00;;;;;;;17.50;11.10;;;;;;;;;;5092467;28;20085;-74
2022/12/31 05:43:45;;;;;;;19.13;11.68;;;;;;;;;;5078100;28;20146;-75
2022/12/31 05:46:31;;;;;;;17.90;11.70;;;;;;;;;;5079985;28;20032;-75
2022/12/31 05:49:16;;;;;;;18.80;11.38;;;;;;;;;;5096667;28;20099;-75
2022/12/31 05:52:02;;;;;;;18.10;11.90;;;;;;;;;;5082251;28;20023;-74
2022/12/31 05:54:48;;;;;;;19.00;12.23;;;;;;;;;;5096640;28;20450;-74
2022/12/31 05:57:33;;;;;;;18.10;11.68;;;;;;;;;;5096130;28;20038;-75
2022/12/31 06:00:19;;;;;;;18.35;11.57;;;;;;;;;;5096128;28;20047;-74
2022/12/31 06:03:04;;;;;;;20.05;11.90;;;;;;;;;;5095987;28;20111;-75
2022/12/31 06:05:50;;;;;;;21.92;14.02;;;;;;;;;;5081551;28;20016;-74
2022/12/31 06:08:35;;;;;;;26.90;15.43;;;;;;;;;;5081512;28;20024;-75
2022/12/31 06:11:21;;;;;;;30.50;16.80;;;;;;;;;;5096797;28;20017;-75
2022/12/31 06:14:07;;;;;;;38.90;19.05;;;;;;;;;;5081849;28;20020;-75
2022/12/31 06:16:52;;;;;;;34.45;17.65;;;;;;;;;;5096358;28;20372;-75
2022/12/31 06:19:38;;;;;;;32.63;16.50;;;;;;;;;;5099536;28;20020;-72
2022/12/31 06:22:23;;;;;;;26.23;14.60;;;;;;;;;;5082268;28;20020;-74
2022/12/31 06:25:09;;;;;;;22.25;13.57;;;;;;;;;;5082844;28;20107;-75
2022/12/31 06:27:55;;;;;;;20.02;12.77;;;;;;;;;;5081229;28;20028;-75
2022/12/31 06:30:40;;;;;;;27.17;13.98;;;;;;;;;;5080426;28;20056;-75
2022/12/31 06:33:26;;;;;;;20.33;12.63;;;;;;;;;;5081891;28;20107;-74
2022/12/31 06:36:13;;;;;;;25.20;14.48;;;;;;;;;;5097291;28;20016;-75
2022/12/31 06:39:00;;;;;;;29.20;15.98;;;;;;;;;;5096071;28;20051;-74
2022/12/31 06:41:45;;;;;;;25.75;16.10;;;;;;;;;;5095455;28;20031;-74
2022/12/31 06:44:31;;;;;;;26.48;14.80;;;;;;;;;;5080673;28;20415;-74
2022/12/31 06:47:16;;;;;;;27.02;15.77;;;;;;;;;;5081349;28;20121;-74
2022/12/31 06:50:02;;;;;;;26.77;14.77;;;;;;;;;;5080023;28;20016;-74
2022/12/31 06:52:48;;;;;;;27.17;14.90;;;;;;;;;;5080210;28;20096;-75
2022/12/31 06:55:33;;;;;;;24.00;14.43;;;;;;;;;;5080714;28;20438;-76
2022/12/31 06:58:19;;;;;;;23.58;14.52;;;;;;;;;;5078513;28;20361;-74
2022/12/31 07:01:05;;;;;;;21.90;13.65;;;;;;;;;;5095294;28;20067;-74
2022/12/31 07:03:53;;;;;;;22.70;12.85;;;;;;;;;;5079856;28;20056;-75
2022/12/31 07:06:42;;;;;;;22.00;13.65;;;;;;;;;;5095407;28;20031;-74
2022/12/31 07:09:34;;;;;;;24.30;14.23;;;;;;;;;;5094920;28;20088;-74
2022/12/31 07:12:34;;;;;;;25.45;15.13;;;;;;;;;;5095220;28;20396;-75
2022/12/31 07:15:30;;;;;;;24.63;15.90;;;;;;;;;;5094997;28;20031;-74
2022/12/31 07:18:18;;;;;;;23.95;15.52;;;;;;;;;;5095508;28;20047;-75
2022/12/31 07:21:08;;;;;;;24.25;15.00;;;;;;;;;;5094698;28;20031;-75
2022/12/31 07:23:54;;;;;;;21.75;13.43;;;;;;;;;;5094693;28;20430;-74
2022/12/31 07:26:40;;;;;;;24.85;13.25;;;;;;;;;;5095207;28;20081;-75
2022/12/31 07:29:48;;;;;;;27.33;14.82;;;;;;;;;;5094539;28;20089;-74
2022/12/31 07:32:40;;;;;;;25.98;15.32;;;;;;;;;;5094437;28;20024;-75
2022/12/31 07:35:25;;;;;;;25.52;14.75;;;;;;;;;;5094715;28;20410;-75
2022/12/31 07:38:11;;;;;;;26.13;15.00;;;;;;;;;;5094694;28;20058;-75
2022/12/31 07:40:59;;;;;;;25.40;15.23;;;;;;;;;;5079352;28;20111;-75
2022/12/31 07:43:55;;;;;;;31.05;17.38;;;;;;;;;;5093794;28;20028;-74
2022/12/31 07:46:43;;;;;;;26.83;16.23;;;;;;;;;;5094263;28;20051;-74
2022/12/31 07:49:30;;;;;;;23.58;16.00;;;;;;;;;;5095750;28;20354;-75
2022/12/31 07:52:16;;;;;;;27.42;16.48;;;;;;;;;;5093729;28;20370;-74
2022/12/31 07:55:01;;;;;;;25.17;15.55;;;;;;;;;;5094777;28;20027;-75
2022/12/31 07:57:54;;;;;;;24.02;16.00;;;;;;;;;;5093986;28;20350;-74
2022/12/31 08:00:39;;;;;;;23.75;15.32;;;;;;;;;;5094287;28;20087;-75
2022/12/31 08:03:39;;;;;;;22.70;15.35;;;;;;;;;;5093904;28;20404;-74
2022/12/31 08:06:34;;;;;;;24.42;14.07;;;;;;;;;;5094626;28;20020;-75
2022/12/31 08:09:28;;;;;;;23.17;14.48;;;;;;;;;;5093836;28;20157;-75
2022/12/31 08:12:14;;;;;;;22.23;13.18;;;;;;;;;;5080626;28;20016;-75
2022/12/31 08:15:00;;;;;;;20.15;13.70;;;;;;;;;;5094905;28;20047;-75
2022/12/31 08:17:46;;;;;;;21.08;13.48;;;;;;;;;;5093853;28;20020;-75
2022/12/31 08:20:32;;;;;;;24.00;14.43;;;;;;;;;;5093750;28;20350;-75
2022/12/31 08:23:18;;;;;;;22.33;14.30;;;;;;;;;;5079937;28;20029;-75
2022/12/31 08:26:14;;;;;;;18.77;13.25;;;;;;;;;;5093655;28;20443;-74
2022/12/31 08:29:18;;;;;;;19.83;12.93;;;;;;;;;;5094374;28;20012;-75
2022/12/31 08:32:04;;;;;;;19.05;12.55;;;;;;;;;;5093836;28;20077;-75
2022/12/31 08:34:52;;;;;;;19.40;13.15;;;;;;;;;;5093806;28;20437;-75
2022/12/31 08:37:41;;;;;;;19.25;12.15;;;;;;;;;;5079220;28;20043;-75
2022/12/31 08:40:29;;;;;;;20.55;13.32;;;;;;;;;;5093386;28;20106;-75
2022/12/31 08:43:15;;;;;;;19.52;12.55;;;;;;;;;;5079890;28;20327;-75
2022/12/31 08:46:01;;;;;;;20.08;12.93;;;;;;;;;;5093035;28;20027;-75
2022/12/31 08:48:47;;;;;;;18.52;12.25;;;;;;;;;;5093426;28;20016;-75
2022/12/31 08:51:32;;;;;;;20.27;12.32;;;;;;;;;;5078748;28;20101;-75
2022/12/31 08:54:18;;;;;;;20.58;12.10;;;;;;;;;;5079124;28;20069;-75
2022/12/31 08:57:07;;;;;;;13.98;10.68;;;;;;;;;;5093621;28;20483;-76
2022/12/31 09:00:11;;;;;;;16.05;10.73;;;;;;;;;;5093938;28;20031;-75
2022/12/31 09:03:06;;;;;;;15.40;10.68;;;;;;;;;;5094046;28;20108;-73
2022/12/31 09:05:51;;;;;;;16.70;10.60;;;;;;;;;;5079353;28;20103;-75
2022/12/31 09:08:37;;;;;;;15.23;10.15;;;;;;;;;;5079479;28;20024;-76
2022/12/31 09:11:29;;;;;;;17.80;9.73;;;;;;;;;;5093217;28;20099;-75
2022/12/31 09:14:23;;;;;;;15.57;8.93;;;;;;;;;;5094160;28;20020;-75
2022/12/31 09:17:30;;;;;;;14.63;9.77;;;;;;;;;;5093550;28;20028;-75
2022/12/31 09:20:21;;;;;;;14.77;10.13;;;;;;;;;;5095628;28;20057;-74
2022/12/31 09:23:06;;;;;;;14.80;9.93;;;;;;;;;;5117019;28;20053;-74
2022/12/31 09:26:00;;;;;;;15.30;10.07;;;;;;;;;;5099743;28;20047;-74
2022/12/31 09:28:51;;;;;;;14.93;9.88;;;;;;;;;;5082075;28;20020;-75
2022/12/31 09:31:43;;;;;;;15.75;9.38;;;;;;;;;;5097454;28;20070;-75
2022/12/31 09:34:36;;;;;;;14.00;9.88;;;;;;;;;;5097108;28;20020;-75
2022/12/31 09:37:33;;;;;;;15.52;10.40;;;;;;;;;;5097755;28;20092;-75
2022/12/31 09:40:19;;;;;;;14.15;10.50;;;;;;;;;;5097081;28;20012;-74
2022/12/31 09:43:17;;;;;;;15.30;10.50;;;;;;;;;;5097185;28;20020;-75
2022/12/31 09:46:21;;;;;;;14.65;10.10;;;;;;;;;;5096631;28;20454;-75
2022/12/31 09:49:06;;;;;;;13.13;9.65;;;;;;;;;;5097761;28;20085;-75
2022/12/31 09:51:55;;;;;;;14.07;9.50;;;;;;;;;;5109408;28;20028;-73
2022/12/31 09:54:43;;;;;;;14.55;10.52;;;;;;;;;;5104365;28;20081;-75
2022/12/31 09:57:34;;;;;;;17.23;9.95;;;;;;;;;;5082076;28;20055;-74
2022/12/31 10:00:20;;;;;;;13.63;10.02;;;;;;;;;;5096931;28;20016;-74
2022/12/31 10:03:24;;;;;;;13.35;9.68;;;;;;;;;;5097734;28;20024;-75
2022/12/31 10:06:22;;;;;;;14.93;10.20;;;;;;;;;;5096569;28;20020;-75
2022/12/31 10:09:16;;;;;;;14.98;9.73;;;;;;;;;;5096059;28;20410;-76
2022/12/31 10:12:05;;;;;;;16.42;11.02;;;;;;;;;;5081794;28;20023;-75
2022/12/31 10:14:56;;;;;;;17.92;10.32;;;;;;;;;;5095879;28;20024;-75
2022/12/31 10:18:00;;;;;;;15.07;10.80;;;;;;;;;;5095922;28;20016;-76
2022/12/31 10:21:06;;;;;;;18.52;11.48;;;;;;;;;;5095847;28;20035;-75
2022/12/31 10:24:10;;;;;;;14.95;11.70;;;;;;;;;;5077620;28;20373;-75
2022/12/31 10:27:28;;;;;;;19.40;12.13;;;;;;;;;;5095590;28;20028;-75
2022/12/31 10:30:18;;;;;;;16.27;11.32;;;;;;;;;;5049720;28;20027;-75
2022/12/31 10:33:06;;;;;;;16.83;11.77;;;;;;;;;;5095177;28;20024;-74
2022/12/31 10:36:05;;;;;;;28.15;13.52;;;;;;;;;;5081280;28;20024;-75
2022/12/31 10:39:00;;;;;;;17.63;11.90;;;;;;;;;;5081020;28;20026;-75
2022/12/31 10:42:04;;;;;;;23.48;12.63;;;;;;;;;;5095565;28;20055;-74
2022/12/31 10:45:09;;;;;;;17.45;11.57;;;;;;;;;;5080746;28;20115;-75
2022/12/31 10:48:13;;;;;;;38.00;15.75;;;;;;;;;;5096220;28;20113;-75
2022/12/31 10:51:17;;;;;;;22.08;12.57;;;;;;;;;;5095879;28;20111;-74
2022/12/31 10:54:18;;;;;;;19.98;12.30;;;;;;;;;;5095977;28;20036;-75
2022/12/31 10:57:33;;;;;;;24.42;12.32;;;;;;;;;;5082478;28;20066;-74
2022/12/31 11:00:20;;;;;;;15.88;10.32;;;;;;;;;;5087846;28;20070;-76
2022/12/31 11:03:05;;;;;;;18.92;11.75;;;;;;;;;;5097283;28;20027;-74
2022/12/31 11:06:00;;;;;;;17.38;11.93;;;;;;;;;;5095186;28;20039;-78
2022/12/31 11:09:03;;;;;;;19.85;12.23;;;;;;;;;;5098294;28;20063;-76
2022/12/31 11:11:52;;;;;;;19.15;12.63;;;;;;;;;;5094652;28;20024;-74
2022/12/31 11:14:38;;;;;;;16.92;11.40;;;;;;;;;;5095162;28;20029;-75
2022/12/31 11:17:29;;;;;;;16.30;11.00;;;;;;;;;;5094214;28;20012;-74
2022/12/31 11:20:18;;;;;;;17.90;12.00;;;;;;;;;;5094943;28;20121;-75
2022/12/31 11:23:22;;;;;;;18.05;11.45;;;;;;;;;;5094818;28;20020;-74
2022/12/31 11:26:25;;;;;;;14.80;10.77;;;;;;;;;;5094061;28;20035;-75
2022/12/31 11:29:29;;;;;;;18.73;11.88;;;;;;;;;;5079962;28;20048;-75
2022/12/31 11:32:15;;;;;;;22.90;12.07;;;;;;;;;;5079897;28;20093;-73
2022/12/31 11:35:06;;;;;;;24.70;14.90;;;;;;;;;;5094158;28;20059;-75
2022/12/31 11:37:57;;;;;;;22.75;14.55;;;;;;;;;;5094646;28;20052;-75
2022/12/31 11:40:52;;;;;;;35.58;20.17;;;;;;;;;;5094161;28;20024;-75
2022/12/31 11:43:42;;;;;;;20.55;14.02;;;;;;;;;;5094203;28;20032;-75
2022/12/31 11:46:47;;;;;;;22.17;14.80;;;;;;;;;;5094182;28;20419;-75
2022/12/31 11:49:33;;;;;;;20.98;13.45;;;;;;;;;;5094559;28;20020;-75
2022/12/31 11:52:18;;;;;;;19.13;11.90;;;;;;;;;;5093453;28;20024;-75
2022/12/31 11:55:04;;;;;;;27.45;17.75;;;;;;;;;;5094004;28;20039;-74
2022/12/31 11:57:50;;;;;;;18.08;12.05;;;;;;;;;;5093827;28;20020;-74
2022/12/31 12:00:37;;;;;;;22.08;14.32;;;;;;;;;;5093996;28;20028;-74
2022/12/31 12:03:23;;;;;;;25.15;16.80;;;;;;;;;;5093953;28;20117;-74
2022/12/31 12:06:12;;;;;;;20.10;13.07;;;;;;;;;;5094249;28;20089;-75
2022/12/31 12:09:00;;;;;;;24.10;14.77;;;;;;;;;;5094477;28;20020;-74
2022/12/31 12:11:56;;;;;;;20.63;13.65;;;;;;;;;;5093988;28;20115;-75
2022/12/31 12:14:44;;;;;;;28.10;16.88;;;;;;;;;;5078894;28;20107;-76
2022/12/31 12:17:31;;;;;;;24.00;14.68;;;;;;;;;;5093520;28;20012;-74
2022/12/31 12:20:18;;;;;;;45.67;26.17;;;;;;;;;;5094580;28;20020;-76
2022/12/31 12:23:22;;;;;;;55.88;31.33;;;;;;;;;;5093735;28;20024;-75
2022/12/31 12:26:24;;;;;;;21.75;14.13;;;;;;;;;;5079488;28;20472;-74
2022/12/31 12:29:11;;;;;;;21.88;14.95;;;;;;;;;;5080342;28;20051;-75
2022/12/31 12:32:03;;;;;;;21.60;12.68;;;;;;;;;;5093809;28;20066;-75
2022/12/31 12:34:49;;;;;;;25.17;16.50;;;;;;;;;;5093591;28;20016;-74
2022/12/31 12:37:35;;;;;;;19.65;13.35;;;;;;;;;;5093266;28;20397;-75
2022/12/31 12:40:22;;;;;;;59.25;32.20;;;;;;;;;;5079009;28;20024;-74
2022/12/31 12:43:22;;;;;;;31.35;17.88;;;;;;;;;;5094201;28;20051;-75
2022/12/31 12:46:16;;;;;;;16.05;11.85;;;;;;;;;;5093135;28;20020;-75
2022/12/31 12:49:02;;;;;;;22.98;14.05;;;;;;;;;;5093074;28;20052;-75
2022/12/31 12:51:54;;;;;;;30.48;18.60;;;;;;;;;;5078451;28;20031;-74
2022/12/31 12:54:46;;;;;;;21.08;12.63;;;;;;;;;;5078826;28;20020;-74
2022/12/31 12:57:54;;;;;;;23.88;13.60;;;;;;;;;;5097799;28;20020;-74
2022/12/31 13:00:45;;;;;;;18.92;12.68;;;;;;;;;;5097165;28;20365;-74
2022/12/31 13:03:40;;;;;;;26.33;15.02;;;;;;;;;;5084164;28;20020;-75
2022/12/31 13:06:41;;;;;;;24.40;14.77;;;;;;;;;;5097304;28;20012;-75
2022/12/31 13:09:49;;;;;;;19.42;13.10;;;;;;;;;;5097159;28;20031;-74
2022/12/31 13:12:35;;;;;;;18.60;13.27;;;;;;;;;;5061597;28;20040;-74
2022/12/31 13:15:28;;;;;;;23.40;14.02;;;;;;;;;;5097032;28;20380;-75
2022/12/31 13:18:22;;;;;;;24.88;16.27;;;;;;;;;;5096683;28;20020;-75
2022/12/31 13:21:18;;;;;;;18.70;13.45;;;;;;;;;;5082656;28;20023;-75
2022/12/31 13:24:04;;;;;;;32.47;19.20;;;;;;;;;;5083534;28;20027;-75
2022/12/31 13:27:04;;;;;;;24.52;15.35;;;;;;;;;;5097185;28;20043;-74
2022/12/31 13:29:50;;;;;;;24.65;15.13;;;;;;;;;;5098207;28;20430;-73
2022/12/31 13:32:38;;;;;;;34.00;19.90;;;;;;;;;;5097105;28;20347;-75
2022/12/31 13:35:29;;;;;;;40.10;22.48;;;;;;;;;;5097745;28;20028;-75
2022/12/31 13:38:18;;;;;;;24.08;15.70;;;;;;;;;;5097321;28;20024;-74
2022/12/31 13:41:09;;;;;;;24.10;15.45;;;;;;;;;;5081684;28;20028;-75
2022/12/31 13:44:04;;;;;;;26.42;15.07;;;;;;;;;;5097101;28;20038;-75
2022/12/31 13:46:55;;;;;;;23.50;15.32;;;;;;;;;;5082580;28;20024;-76
2022/12/31 13:49:50;;;;;;;20.98;14.50;;;;;;;;;;5097058;28;20056;-75
2022/12/31 13:52:41;;;;;;;23.10;14.95;;;;;;;;;;5096756;28;20024;-75
2022/12/31 13:55:27;;;;;;;30.05;16.80;;;;;;;;;;5106815;28;20027;-74
2022/12/31 13:58:22;;;;;;;29.98;18.23;;;;;;;;;;5106349;28;20016;-75
2022/12/31 14:01:07;;;;;;;32.95;18.23;;;;;;;;;;5081495;28;20061;-75
2022/12/31 14:03:57;;;;;;;27.60;16.90;;;;;;;;;;5094815;28;20027;-74
2022/12/31 14:07:01;;;;;;;28.55;15.48;;;;;;;;;;5094251;28;20016;-75
2022/12/31 14:09:47;;;;;;;24.70;15.98;;;;;;;;;;5094631;28;20442;-75
2022/12/31 14:12:33;;;;;;;27.67;17.48;;;;;;;;;;5096916;28;20358;-75
2022/12/31 14:15:18;;;;;;;41.40;22.10;;;;;;;;;;5094850;28;20114;-76
2022/12/31 14:18:13;;;;;;;44.45;21.88;;;;;;;;;;5081452;28;20016;-75
2022/12/31 14:21:12;;;;;;;54.40;27.55;;;;;;;;;;5094985;28;20350;-75
2022/12/31 14:24:18;;;;;;;49.55;26.05;;;;;;;;;;5095860;28;20382;-75
2022/12/31 14:27:09;;;;;;;34.75;20.77;;;;;;;;;;5082853;28;20035;-75
2022/12/31 14:30:15;;;;;;;38.15;20.40;;;;;;;;;;5096641;28;20077;-75
2022/12/31 14:33:22;;;;;;;38.35;21.80;;;;;;;;;;5095046;28;20030;-75
2022/12/31 14:36:26;;;;;;;46.47;23.95;;;;;;;;;;5095391;28;20039;-74
2022/12/31 14:39:25;;;;;;;40.65;24.05;;;;;;;;;;5087080;28;20044;-73
2022/12/31 14:42:20;;;;;;;35.70;22.15;;;;;;;;;;5100131;28;20031;-75
2022/12/31 14:45:41;;;;;;;40.92;23.25;;;;;;;;;;5080671;28;20116;-74
2022/12/31 14:48:43;;;;;;;40.22;22.77;;;;;;;;;;5005763;28;20054;-73
2022/12/31 14:51:28;;;;;;;35.63;22.02;;;;;;;;;;5106490;28;20027;-75
2022/12/31 14:54:27;;;;;;;37.72;22.10;;;;;;;;;;5099122;28;20019;-75
2022/12/31 14:57:16;;;;;;;37.30;21.83;;;;;;;;;;5081175;28;20024;-74
2022/12/31 15:00:21;;;;;;;32.75;20.25;;;;;;;;;;5094296;28;20133;-75
2022/12/31 15:03:12;;;;;;;29.58;19.45;;;;;;;;;;5074735;28;20052;-74
2022/12/31 15:06:02;;;;;;;30.38;18.75;;;;;;;;;;5074690;28;20035;-74
2022/12/31 15:09:03;;;;;;;31.13;20.02;;;;;;;;;;5061277;28;20446;-75
2022/12/31 15:12:01;;;;;;;31.10;19.73;;;;;;;;;;5074002;28;20028;-74
2022/12/31 15:14:46;;;;;;;34.55;20.35;;;;;;;;;;5060561;28;20089;-74
2022/12/31 15:17:46;;;;;;;30.77;20.45;;;;;;;;;;5074503;28;20406;-74
2022/12/31 15:20:32;;;;;;;32.83;20.60;;;;;;;;;;5074171;28;20461;-75
2022/12/31 15:23:22;;;;;;;29.63;20.05;;;;;;;;;;5059888;28;20052;-75
2022/12/31 15:26:18;;;;;;;31.23;19.77;;;;;;;;;;5060941;28;20020;-74
2022/12/31 15:29:06;;;;;;;31.95;21.45;;;;;;;;;;5059040;28;20048;-76
2022/12/31 15:31:52;;;;;;;32.88;20.95;;;;;;;;;;5074661;28;20021;-74
2022/12/31 15:34:38;;;;;;;32.63;21.67;;;;;;;;;;5074221;28;20024;-75
2022/12/31 15:37:28;;;;;;;31.90;21.25;;;;;;;;;;5074380;28;20024;-74
2022/12/31 15:40:14;;;;;;;36.55;21.13;;;;;;;;;;5074114;28;20040;-75
2022/12/31 15:43:13;;;;;;;34.75;23.13;;;;;;;;;;5074202;28;20025;-75
2022/12/31 15:45:59;;;;;;;47.50;29.80;;;;;;;;;;5074563;28;20020;-75
2022/12/31 15:49:05;;;;;;;47.67;28.50;;;;;;;;;;5073904;28;20028;-75
2022/12/31 15:51:53;;;;;;;38.35;24.30;;;;;;;;;;5059200;28;20378;-74
2022/12/31 15:54:49;;;;;;;42.70;24.88;;;;;;;;;;5073924;28;20020;-74
2022/12/31 15:57:40;;;;;;;44.05;26.67;;;;;;;;;;5074096;28;20154;-75
2022/12/31 16:00:28;;;;;;;42.67;25.63;;;;;;;;;;5058939;28;20028;-74
2022/12/31 16:03:21;;;;;;;40.45;25.13;;;;;;;;;;5093167;28;20020;-74
2022/12/31 16:06:10;;;;;;;43.90;26.80;;;;;;;;;;5093329;28;20027;-74
2022/12/31 16:08:56;;;;;;;56.03;31.80;;;;;;;;;;5093415;28;20020;-75
2022/12/31 16:11:43;;;;;;;57.70;34.63;;;;;;;;;;5079421;28;20035;-75
2022/12/31 16:14:33;;;;;;;59.78;34.90;;;;;;;;;;5093768;28;20016;-76
2022/12/31 16:17:39;;;;;;;57.28;34.85;;;;;;;;;;5093529;28;20024;-75
2022/12/31 16:20:28;;;;;;;52.80;31.60;;;;;;;;;;5094219;28;20043;-75
2022/12/31 16:23:22;;;;;;;52.40;32.15;;;;;;;;;;5093851;28;20028;-75
2022/12/31 16:26:08;;;;;;;49.47;29.98;;;;;;;;;;5093269;28;20031;-76
2022/12/31 16:28:58;;;;;;;44.60;27.48;;;;;;;;;;5092892;28;20020;-74
2022/12/31 16:31:45;;;;;;;44.50;27.48;;;;;;;;;;5078158;28;20129;-74
2022/12/31 16:34:35;;;;;;;41.70;27.08;;;;;;;;;;5093271;28;20056;-75
2022/12/31 16:37:22;;;;;;;44.72;28.02;;;;;;;;;;5079391;28;20486;-75